Time;durP1;ratioP1;P1;durP2;ratioP2;P2;SDS_P1;SDS_P2;PMS_P1;PMS_P2;Temp;Humidity;BMP_temperature;BMP_pressure;BME280_temperature;BME280_humidity;BME280_pressure;Samples;Min_cycle;Max_cycle;Signal;HPM_P1;HPM_P2
2022/09/08 00:00:26;;;;;;;4.40;3.17;;;;;;;17.61;91.79;95099.31;4976570;28;20739;-77
2022/09/08 00:02:51;;;;;;;6.38;3.63;;;;;;;17.44;91.45;95083.13;4987076;28;20231;-77
2022/09/08 00:05:19;;;;;;;4.50;3.10;;;;;;;17.42;90.13;95073.84;4985220;28;20643;-77
2022/09/08 00:07:46;;;;;;;4.85;3.13;;;;;;;17.28;91.06;95079.09;4981586;28;20211;-77
2022/09/08 00:10:12;;;;;;;6.95;3.08;;;;;;;17.28;91.25;95075.66;4997495;28;20183;-76
2022/09/08 00:12:41;;;;;;;3.58;2.92;;;;;;;17.30;91.56;95070.19;4983019;28;20560;-76
2022/09/08 00:15:08;;;;;;;4.38;3.20;;;;;;;17.22;91.98;95077.25;4985821;28;20660;-77
2022/09/08 00:17:33;;;;;;;5.00;3.13;;;;;;;17.33;91.44;95081.13;4987521;28;20576;-77
2022/09/08 00:19:58;;;;;;;4.60;3.20;;;;;;;17.26;92.86;95083.72;4989983;28;20222;-77
2022/09/08 00:22:24;;;;;;;5.20;3.53;;;;;;;17.20;93.45;95081.09;5001387;28;20187;-76
2022/09/08 00:24:49;;;;;;;4.13;3.70;;;;;;;17.23;93.69;95080.72;4979945;28;20211;-77
2022/09/08 00:27:14;;;;;;;5.20;4.03;;;;;;;17.16;94.07;95080.69;4985405;28;20219;-77
2022/09/08 00:29:39;;;;;;;5.18;3.50;;;;;;;17.20;93.76;95081.09;5002560;28;20184;-77
2022/09/08 00:32:05;;;;;;;5.18;3.50;;;;;;;17.13;94.81;95082.88;4970657;28;20198;-77
2022/09/08 00:34:30;;;;;;;4.25;3.85;;;;;;;17.12;94.92;95087.31;5006830;28;20187;-77
2022/09/08 00:36:58;;;;;;;6.72;3.65;;;;;;;17.11;95.11;95082.28;4987925;28;20254;-76
2022/09/08 00:39:23;;;;;;;4.43;3.60;;;;;;;17.03;95.62;95088.53;4994509;28;20200;-77
2022/09/08 00:41:50;;;;;;;6.13;4.22;;;;;;;17.03;96.02;95093.75;5001556;28;20194;-77
2022/09/08 00:44:48;;;;;;;6.88;4.18;;;;;;;16.95;96.54;95099.19;4975358;28;20188;-76
2022/09/08 00:47:25;;;;;;;7.45;4.82;;;;;;;16.77;98.33;95102.38;5004602;28;20580;-77
2022/09/08 00:49:56;;;;;;;5.82;4.68;;;;;;;16.86;97.83;95111.66;4979853;28;20195;-77
2022/09/08 00:52:22;;;;;;;7.35;5.20;;;;;;;16.86;97.79;95116.91;4965298;28;20184;-77
2022/09/08 00:54:48;;;;;;;5.25;4.68;;;;;;;16.80;98.27;95112.47;4993431;28;20183;-76
2022/09/08 00:57:14;;;;;;;5.35;4.85;;;;;;;16.80;98.73;95093.31;4986510;28;20203;-77
2022/09/08 00:59:39;;;;;;;8.55;4.60;;;;;;;16.85;98.45;95090.88;4984775;28;20662;-77
2022/09/08 01:02:21;;;;;;;5.35;4.85;;;;;;;16.86;98.11;95095.13;4984694;28;20184;-77
2022/09/08 01:04:47;;;;;;;7.18;4.75;;;;;;;16.83;98.02;95090.28;4997590;28;20202;-77
2022/09/08 01:13:05;;;;;;;6.38;4.80;;;;;;;16.78;98.53;95092.69;4981760;28;20614;-77
2022/09/08 01:15:30;;;;;;;7.07;5.00;;;;;;;16.82;98.18;95096.53;4985770;28;20176;-77
2022/09/08 01:17:57;;;;;;;7.57;4.65;;;;;;;16.85;98.13;95096.94;4988312;28;20261;-78
2022/09/08 01:20:42;;;;;;;7.03;4.53;;;;;;;16.84;98.30;95102.38;4978714;28;20551;-78
2022/09/08 01:23:26;;;;;;;7.65;4.70;;;;;;;16.78;99.05;95103.97;4991115;28;20299;-78
2022/09/08 01:26:06;;;;;;;6.57;4.80;;;;;;;16.88;98.15;95103.63;4990343;28;20295;-78
2022/09/08 01:28:53;;;;;;;5.57;4.57;;;;;;;16.94;97.58;95108.06;4988425;28;20188;-78
2022/09/08 01:31:19;;;;;;;8.70;4.97;;;;;;;16.91;98.00;95109.28;5004209;28;20214;-77
2022/09/08 01:33:44;;;;;;;5.75;4.20;;;;;;;16.79;98.62;95104.81;4975439;28;20175;-78
2022/09/08 01:36:12;;;;;;;5.25;4.45;;;;;;;16.78;99.51;95097.91;4985626;28;20184;-77
2022/09/08 01:38:37;;;;;;;5.20;4.63;;;;;;;16.83;99.13;95095.53;4981288;28;20238;-78
2022/09/08 01:41:03;;;;;;;6.28;4.78;;;;;;;16.75;99.61;95098.31;4994355;28;20175;-78
2022/09/08 01:43:28;;;;;;;5.45;4.95;;;;;;;16.75;99.84;95091.25;4987672;28;20183;-77
2022/09/08 01:45:55;;;;;;;7.45;5.13;;;;;;;16.70;100.00;95091.88;4983994;28;20216;-77
2022/09/08 01:48:20;;;;;;;7.93;4.70;;;;;;;16.79;99.97;95095.13;4989529;28;20280;-78
2022/09/08 01:50:46;;;;;;;6.20;5.13;;;;;;;16.74;100.00;95091.47;4997957;28;20659;-77
2022/09/08 01:53:11;;;;;;;5.90;4.63;;;;;;;16.78;100.00;95079.56;4981256;28;20202;-77
2022/09/08 01:55:36;;;;;;;5.22;4.05;;;;;;;16.83;99.66;95069.31;4989771;28;20211;-78
2022/09/08 01:58:02;;;;;;;5.00;4.60;;;;;;;16.80;100.00;95069.72;4987572;28;20576;-78
2022/09/08 02:00:27;;;;;;;7.50;4.60;;;;;;;16.77;100.00;95068.28;4976683;28;20195;-77
2022/09/08 02:02:52;;;;;;;5.13;4.38;;;;;;;16.75;100.00;95061.63;5008695;28;20202;-78
2022/09/08 02:05:18;;;;;;;5.93;4.90;;;;;;;16.73;100.00;95056.56;4986174;28;20211;-77
2022/09/08 02:07:43;;;;;;;6.00;4.07;;;;;;;16.80;100.00;95049.53;4993888;28;20233;-78
2022/09/08 02:10:08;;;;;;;5.95;4.65;;;;;;;16.76;100.00;95055.38;4969983;28;20280;-78
2022/09/08 02:12:34;;;;;;;4.93;4.38;;;;;;;16.79;100.00;95047.94;4970212;28;20659;-77
2022/09/08 02:14:59;;;;;;;5.93;4.53;;;;;;;16.77;100.00;95042.06;4975416;28;20266;-77
2022/09/08 02:17:27;;;;;;;6.03;4.82;;;;;;;16.80;100.00;95041.69;4984250;28;20290;-77
2022/09/08 02:19:52;;;;;;;7.82;4.47;;;;;;;16.78;100.00;95045.47;4999149;28;20592;-77
2022/09/08 02:22:18;;;;;;;7.10;5.25;;;;;;;16.83;100.00;95043.09;4965617;28;20192;-78
2022/09/08 02:24:43;;;;;;;5.45;4.22;;;;;;;16.89;100.00;95050.97;4977945;28;20211;-77
2022/09/08 02:27:09;;;;;;;6.78;4.85;;;;;;;16.78;100.00;95045.47;4986786;28;20265;-78
2022/09/08 02:29:34;;;;;;;6.25;4.72;;;;;;;16.83;100.00;95043.09;4988890;28;20184;-78
2022/09/08 02:32:00;;;;;;;5.30;4.80;;;;;;;16.82;100.00;95046.72;5009775;28;20190;-78
2022/09/08 02:34:25;;;;;;;5.50;5.00;;;;;;;16.74;100.00;95037.22;4999772;28;20236;-78
2022/09/08 02:36:50;;;;;;;8.95;5.20;;;;;;;16.76;100.00;95035.19;4991434;28;20203;-77
2022/09/08 02:39:17;;;;;;;5.53;5.00;;;;;;;16.81;100.00;95035.44;4987957;28;20765;-78
2022/09/08 02:41:42;;;;;;;5.38;4.88;;;;;;;16.75;100.00;95033.59;4991199;28;20203;-78
2022/09/08 02:44:09;;;;;;;6.38;5.05;;;;;;;16.79;100.00;95041.88;4983801;28;20191;-78
2022/09/08 02:46:34;;;;;;;6.05;5.30;;;;;;;16.67;100.00;95042.41;4993922;28;20222;-78
2022/09/08 02:48:59;;;;;;;5.95;5.35;;;;;;;16.63;100.00;95033.34;4965610;28;20191;-77
2022/09/08 02:51:25;;;;;;;7.50;5.82;;;;;;;16.70;100.00;95038.63;4981205;28;20537;-78
2022/09/08 02:53:52;;;;;;;5.55;4.50;;;;;;;16.70;100.00;95044.69;4984892;28;20194;-78
2022/09/08 02:56:17;;;;;;;7.35;4.82;;;;;;;16.69;100.00;95031.75;4985814;28;20337;-78
2022/09/08 02:58:43;;;;;;;5.13;4.60;;;;;;;16.74;100.00;95031.16;4967711;28;20700;-78
2022/09/08 03:01:09;;;;;;;5.70;4.80;;;;;;;16.80;100.00;95020.69;5000595;28;20223;-78
2022/09/08 03:03:34;;;;;;;5.38;4.88;;;;;;;16.73;100.00;95032.19;4971195;28;20176;-78
2022/09/08 03:05:59;;;;;;;4.80;4.40;;;;;;;16.79;100.00;95028.78;4985338;28;20338;-78
2022/09/08 03:08:25;;;;;;;6.88;4.65;;;;;;;16.63;100.00;95030.72;5000979;28;20202;-78
2022/09/08 03:10:51;;;;;;;5.88;5.20;;;;;;;16.73;100.00;95030.34;4983781;28;20678;-78
2022/09/08 03:13:17;;;;;;;5.07;4.68;;;;;;;16.73;100.00;95032.97;5000367;28;20246;-78
2022/09/08 03:15:42;;;;;;;6.03;4.60;;;;;;;16.75;100.00;95035.41;4978604;28;20195;-78
2022/09/08 03:18:08;;;;;;;5.15;4.68;;;;;;;16.58;100.00;95027.06;4979624;28;20584;-78
2022/09/08 03:20:36;;;;;;;5.10;4.60;;;;;;;16.48;100.00;95030.03;4980819;28;20184;-79
2022/09/08 03:23:02;;;;;;;4.13;3.47;;;;;;;16.42;100.00;95030.81;4984779;28;20190;-78
2022/09/08 03:25:28;;;;;;;4.45;3.58;;;;;;;16.37;100.00;95034.03;4986074;28;20209;-79
2022/09/08 03:27:54;;;;;;;3.38;3.08;;;;;;;16.33;100.00;95029.38;4970954;28;20302;-78
2022/09/08 03:30:19;;;;;;;2.70;2.50;;;;;;;16.25;100.00;95022.50;4972772;28;20190;-79
2022/09/08 03:32:46;;;;;;;4.13;2.58;;;;;;;16.34;100.00;95025.75;4982271;28;20671;-79
2022/09/08 03:35:13;;;;;;;3.00;2.30;;;;;;;16.25;100.00;95030.34;4976120;28;20192;-79
2022/09/08 03:37:39;;;;;;;3.60;2.30;;;;;;;16.14;100.00;95030.91;4976149;28;20207;-79
2022/09/08 03:40:10;;;;;;;2.70;2.00;;;;;;;16.15;100.00;95028.09;4987286;28;20183;-79
2022/09/08 03:42:38;;;;;;;2.92;2.00;;;;;;;16.20;100.00;95035.38;4997131;28;20179;-78
2022/09/08 03:45:07;;;;;;;2.90;1.92;;;;;;;15.99;100.00;95023.19;5001626;28;20212;-79
2022/09/08 03:47:33;;;;;;;3.90;2.05;;;;;;;16.05;100.00;95024.22;4986431;28;20226;-78
2022/09/08 03:49:58;;;;;;;2.10;1.90;;;;;;;16.08;100.00;95029.88;4973497;28;20739;-79
2022/09/08 03:52:24;;;;;;;2.35;2.15;;;;;;;15.96;100.00;95023.56;4988098;28;20311;-79
2022/09/08 03:54:52;;;;;;;1.88;1.77;;;;;;;16.12;100.00;95020.63;5006265;28;20195;-79
2022/09/08 03:57:26;;;;;;;2.25;2.05;;;;;;;16.09;100.00;95021.03;4977181;28;20286;-79
2022/09/08 03:59:53;;;;;;;2.95;1.85;;;;;;;16.07;100.00;95022.19;4975648;28;20550;-78
2022/09/08 04:02:20;;;;;;;2.03;1.83;;;;;;;16.01;100.00;95020.38;4989283;28;20210;-78
2022/09/08 04:04:49;;;;;;;4.32;1.98;;;;;;;15.99;100.00;95033.66;4990682;28;20228;-78
2022/09/08 04:07:16;;;;;;;2.20;2.00;;;;;;;15.87;100.00;95032.56;4983947;28;20579;-79
2022/09/08 04:09:42;;;;;;;3.47;1.95;;;;;;;15.91;100.00;95044.31;4988823;28;20222;-79
2022/09/08 04:12:08;;;;;;;2.47;1.70;;;;;;;15.86;100.00;95044.06;4984964;28;20215;-79
2022/09/08 04:14:33;;;;;;;5.65;1.75;;;;;;;15.87;100.00;95037.81;4969826;28;20183;-80
2022/09/08 04:16:59;;;;;;;2.58;2.20;;;;;;;15.93;100.00;95042.28;4988182;28;20206;-79
2022/09/08 04:19:24;;;;;;;3.25;2.47;;;;;;;15.89;100.00;95040.22;4994674;28;20197;-77
2022/09/08 04:21:49;;;;;;;1.60;1.50;;;;;;;15.83;100.00;95041.84;5008022;28;20175;-79
2022/09/08 04:24:15;;;;;;;2.33;1.70;;;;;;;15.78;100.00;95046.81;5009367;28;20222;-79
2022/09/08 04:26:41;;;;;;;2.53;1.58;;;;;;;15.78;100.00;95041.59;5013507;28;20227;-78
2022/09/08 04:29:06;;;;;;;1.60;1.25;;;;;;;15.62;100.00;95052.34;4994087;28;20520;-79
2022/09/08 04:31:31;;;;;;;1.13;0.75;;;;;;;15.64;98.76;95047.75;4969738;28;20277;-79
2022/09/08 04:33:57;;;;;;;1.08;0.77;;;;;;;15.64;96.45;95038.09;4965339;28;20196;-78
2022/09/08 04:36:22;;;;;;;0.65;0.55;;;;;;;15.73;94.75;95044.78;4986658;28;20296;-79
2022/09/08 04:38:48;;;;;;;1.33;0.80;;;;;;;15.69;94.51;95042.72;5004139;28;20682;-79
2022/09/08 04:41:16;;;;;;;0.63;0.63;;;;;;;15.73;94.33;95039.56;4985766;28;20568;-78
2022/09/08 04:43:41;;;;;;;0.60;0.60;;;;;;;15.68;93.71;95041.13;4999483;28;20184;-78
2022/09/08 04:46:10;;;;;;;1.42;0.50;;;;;;;15.66;93.20;95050.97;4991438;28;20315;-79
2022/09/08 04:48:36;;;;;;;0.47;0.47;;;;;;;15.67;92.95;95055.22;4985107;28;20195;-79
2022/09/08 04:51:03;;;;;;;0.75;0.60;;;;;;;15.59;92.37;95049.09;4977167;28;20198;-79
2022/09/08 04:53:30;;;;;;;1.85;0.50;;;;;;;15.45;92.69;95055.19;4990891;28;20203;-78
2022/09/08 04:55:56;;;;;;;1.00;0.50;;;;;;;15.42;93.08;95060.81;4968049;28;20318;-78
2022/09/08 04:58:21;;;;;;;0.82;0.50;;;;;;;15.40;91.91;95059.41;4987871;28;20290;-78
2022/09/08 05:00:47;;;;;;;0.40;0.40;;;;;;;15.35;91.74;95059.16;4979697;28;20221;-78
2022/09/08 05:03:12;;;;;;;1.60;0.47;;;;;;;15.24;91.88;95061.28;4974824;28;20258;-78
2022/09/08 05:05:38;;;;;;;1.08;0.50;;;;;;;15.00;89.83;95075.53;4987457;28;20200;-77
2022/09/08 05:08:07;;;;;;;0.40;0.40;;;;;;;15.00;89.16;95078.16;4977075;28;20211;-78
2022/09/08 05:10:32;;;;;;;0.63;0.40;;;;;;;14.96;89.41;95082.13;5001021;28;20194;-77
2022/09/08 05:12:58;;;;;;;0.85;0.57;;;;;;;14.87;90.65;95090.28;5008045;28;20195;-77
2022/09/08 05:15:23;;;;;;;2.05;0.57;;;;;;;14.86;90.38;95092.09;4991758;28;20195;-77
2022/09/08 05:17:49;;;;;;;0.43;0.40;;;;;;;14.85;90.65;95100.13;4983093;28;20207;-78
2022/09/08 05:20:14;;;;;;;1.55;0.50;;;;;;;14.85;91.18;95100.94;4985807;28;20180;-77
2022/09/08 05:22:40;;;;;;;0.88;0.57;;;;;;;14.67;90.46;95097.91;5008421;28;20221;-78
2022/09/08 05:25:06;;;;;;;2.72;0.63;;;;;;;14.74;90.71;95104.81;4972923;28;20203;-78
2022/09/08 05:27:31;;;;;;;0.50;0.50;;;;;;;14.81;90.30;95104.09;4993726;28;20309;-78
2022/09/08 05:29:56;;;;;;;0.55;0.52;;;;;;;14.77;90.10;95100.22;4999162;28;20758;-78
2022/09/08 05:32:22;;;;;;;0.43;0.40;;;;;;;14.69;90.74;95101.97;5003246;28;20261;-79
2022/09/08 05:34:47;;;;;;;0.45;0.45;;;;;;;14.86;90.41;95106.97;4983504;28;20222;-78
2022/09/08 05:37:12;;;;;;;0.45;0.40;;;;;;;14.86;90.47;95114.81;4989070;28;20295;-78
2022/09/08 05:39:38;;;;;;;1.40;0.65;;;;;;;14.90;89.89;95119.47;4970537;28;20187;-78
2022/09/08 05:42:04;;;;;;;1.75;0.38;;;;;;;15.02;90.36;95133.69;4999847;28;20191;-78
2022/09/08 05:44:29;;;;;;;2.95;0.60;;;;;;;14.77;89.12;95145.47;4968271;28;20672;-78
2022/09/08 05:46:55;;;;;;;1.20;0.57;;;;;;;14.87;89.24;95145.19;5006057;28;20223;-78
2022/09/08 05:49:21;;;;;;;1.48;0.63;;;;;;;14.70;90.33;95149.81;4983792;28;20198;-78
2022/09/08 05:51:47;;;;;;;0.60;0.60;;;;;;;14.65;89.75;95147.72;4973605;28;20209;-78
2022/09/08 05:54:12;;;;;;;0.50;0.50;;;;;;;14.74;89.88;95148.44;4990459;28;20191;-77
2022/09/08 05:56:38;;;;;;;0.40;0.40;;;;;;;14.67;90.03;95135.31;4981298;28;20583;-77
2022/09/08 05:59:03;;;;;;;0.50;0.50;;;;;;;14.62;90.52;95147.28;4996385;28;20183;-78
2022/09/08 06:01:30;;;;;;;0.70;0.70;;;;;;;14.79;89.92;95143.47;4969890;28;20184;-77
2022/09/08 06:03:56;;;;;;;0.52;0.50;;;;;;;14.73;89.12;95139.78;4986785;28;20647;-78
2022/09/08 06:06:22;;;;;;;2.88;0.43;;;;;;;14.69;89.09;95145.56;4975833;28;20276;-78
2022/09/08 06:08:48;;;;;;;1.00;0.50;;;;;;;14.66;88.93;95141.50;4976985;28;20209;-77
2022/09/08 06:11:13;;;;;;;0.55;0.50;;;;;;;14.53;90.95;95141.34;4985640;28;20188;-78
2022/09/08 06:13:39;;;;;;;0.70;0.60;;;;;;;14.56;90.56;95132.34;4981099;28;20187;-77
2022/09/08 06:16:09;;;;;;;1.75;0.70;;;;;;;14.67;90.77;95140.53;4977109;28;20215;-77
2022/09/08 06:18:36;;;;;;;0.93;0.52;;;;;;;14.81;89.54;95138.88;4993890;28;20278;-77
2022/09/08 06:21:06;;;;;;;1.05;0.40;;;;;;;14.78;89.72;95141.88;4989842;28;20191;-78
2022/09/08 06:23:31;;;;;;;0.93;0.52;;;;;;;14.81;89.35;95127.63;4984959;28;20194;-77
2022/09/08 06:26:06;;;;;;;1.13;0.50;;;;;;;14.55;89.38;95135.94;4973156;28;20290;-78
2022/09/08 06:28:38;;;;;;;0.70;0.50;;;;;;;14.66;89.31;95157.19;4982874;28;20183;-78
2022/09/08 06:31:06;;;;;;;0.65;0.43;;;;;;;14.52;90.02;95154.59;4984438;28;20245;-78
2022/09/08 06:33:37;;;;;;;0.82;0.65;;;;;;;14.68;88.77;95142.16;4989149;28;20675;-78
2022/09/08 06:36:22;;;;;;;1.08;0.60;;;;;;;14.62;87.74;95137.66;4984472;28;20663;-78
2022/09/08 06:38:53;;;;;;;2.33;0.52;;;;;;;14.72;86.90;95137.34;4989126;28;20219;-78
2022/09/08 06:41:21;;;;;;;1.95;0.70;;;;;;;14.77;86.24;95132.41;4981135;28;20556;-76
2022/09/08 06:44:01;;;;;;;3.00;1.00;;;;;;;14.64;86.23;95130.44;4981127;28;20183;-77
2022/09/08 06:46:36;;;;;;;1.58;0.90;;;;;;;14.83;84.66;95149.13;4986248;28;20301;-77
2022/09/08 06:49:02;;;;;;;1.30;0.80;;;;;;;14.84;84.47;95150.75;4973391;28;20199;-77
2022/09/08 06:51:46;;;;;;;0.93;0.52;;;;;;;14.86;84.48;95154.84;4990516;28;20188;-77
2022/09/08 06:54:21;;;;;;;0.77;0.70;;;;;;;14.74;85.00;95157.09;5006171;28;20187;-77
2022/09/08 06:56:51;;;;;;;1.27;0.63;;;;;;;14.84;84.88;95162.06;4997159;28;21178;-78
2022/09/08 06:59:47;;;;;;;0.50;0.50;;;;;;;14.74;85.31;95167.53;5000281;28;20182;-77
2022/09/08 07:02:41;;;;;;;1.42;0.80;;;;;;;14.64;84.13;95171.44;5003652;28;20191;-78
2022/09/08 07:05:12;;;;;;;2.15;0.63;;;;;;;14.68;84.64;95170.09;5001669;28;20286;-78
2022/09/08 07:08:11;;;;;;;1.42;0.70;;;;;;;14.95;84.04;95169.41;4991277;28;20207;-77
2022/09/08 07:10:58;;;;;;;1.98;0.60;;;;;;;14.81;82.39;95169.44;4989045;28;20643;-78
2022/09/08 07:13:48;;;;;;;1.15;0.52;;;;;;;14.89;82.91;95169.34;4980385;28;20180;-78
2022/09/08 07:16:34;;;;;;;1.42;0.68;;;;;;;15.14;82.54;95167.22;4972432;28;20195;-78
2022/09/08 07:19:11;;;;;;;0.82;0.70;;;;;;;15.23;82.29;95174.75;4994320;28;20187;-78
2022/09/08 07:21:48;;;;;;;0.95;0.80;;;;;;;15.28;81.71;95171.56;4991072;28;20179;-79
2022/09/08 07:24:15;;;;;;;1.27;0.85;;;;;;;15.46;81.83;95181.59;4982793;28;20555;-77
2022/09/08 07:26:57;;;;;;;3.72;0.77;;;;;;;15.68;80.67;95179.84;4985309;28;20219;-78
2022/09/08 07:29:50;;;;;;;1.88;0.85;;;;;;;15.81;80.13;95185.19;4978870;28;20187;-77
2022/09/08 07:32:20;;;;;;;2.05;0.70;;;;;;;15.81;79.83;95185.19;5003019;28;20222;-77
2022/09/08 07:35:16;;;;;;;1.00;0.70;;;;;;;16.01;78.20;95191.41;4992245;28;20547;-77
2022/09/08 07:37:44;;;;;;;1.25;0.60;;;;;;;16.37;77.44;95188.66;4991417;28;20640;-78
2022/09/08 07:40:21;;;;;;;2.80;0.93;;;;;;;16.63;77.40;95201.09;4974791;28;20180;-78
2022/09/08 07:42:57;;;;;;;0.82;0.68;;;;;;;16.82;76.42;95198.81;4985305;28;20578;-78
2022/09/08 07:45:34;;;;;;;0.98;0.70;;;;;;;17.29;74.96;95197.97;4979400;28;20427;-77
2022/09/08 07:48:08;;;;;;;1.55;0.77;;;;;;;17.31;74.59;95203.03;4992044;28;20571;-78
2022/09/08 07:50:56;;;;;;;0.98;0.60;;;;;;;17.80;72.11;95203.56;4979507;28;20184;-78
2022/09/08 07:53:40;;;;;;;1.40;0.60;;;;;;;17.97;72.32;95204.00;4991720;28;20198;-78
2022/09/08 07:56:13;;;;;;;3.00;0.70;;;;;;;18.17;71.44;95201.34;5001901;28;20259;-78
2022/09/08 07:59:08;;;;;;;0.93;0.77;;;;;;;17.89;71.57;95208.63;4989922;28;20191;-78
2022/09/08 08:01:48;;;;;;;2.47;0.75;;;;;;;17.95;71.01;95210.47;5009354;28;20196;-78
2022/09/08 08:04:36;;;;;;;2.17;1.10;;;;;;;17.92;72.30;95213.47;5004617;28;20187;-78
2022/09/08 08:07:05;;;;;;;2.03;0.90;;;;;;;17.96;71.71;95210.25;4993416;28;20269;-78
2022/09/08 08:09:43;;;;;;;2.25;0.63;;;;;;;18.35;70.75;95214.69;4987530;28;20187;-78
2022/09/08 08:12:30;;;;;;;0.93;0.68;;;;;;;18.77;68.39;95215.28;4986570;28;20217;-78
2022/09/08 08:14:59;;;;;;;2.20;1.00;;;;;;;18.73;67.69;95215.88;4988707;28;20275;-78
2022/09/08 08:17:36;;;;;;;2.08;1.10;;;;;;;18.99;68.09;95222.88;5006475;28;20684;-78
2022/09/08 08:20:26;;;;;;;2.13;1.48;;;;;;;18.79;69.11;95228.22;4991291;28;20261;-78
2022/09/08 08:23:20;;;;;;;1.65;1.40;;;;;;;18.82;68.30;95226.00;5002531;28;20183;-78
2022/09/08 08:26:00;;;;;;;2.67;1.23;;;;;;;18.05;68.82;95235.31;5001202;28;20635;-78
2022/09/08 08:28:26;;;;;;;3.08;1.10;;;;;;;17.86;71.14;95227.44;5004662;28;20175;-78
2022/09/08 08:31:11;;;;;;;1.23;0.80;;;;;;;18.16;70.59;95231.28;4989707;28;20720;-78
2022/09/08 08:33:41;;;;;;;2.60;1.20;;;;;;;18.50;68.95;95234.72;4985988;28;20563;-79
2022/09/08 08:36:10;;;;;;;1.08;0.70;;;;;;;18.87;68.48;95234.06;4977009;28;20176;-78
2022/09/08 08:38:40;;;;;;;2.90;1.00;;;;;;;18.89;68.58;95239.09;4976672;28;20191;-78
2022/09/08 08:41:27;;;;;;;0.68;0.68;;;;;;;19.04;67.92;95241.50;4976454;28;20182;-77
2022/09/08 08:43:55;;;;;;;0.80;0.57;;;;;;;19.11;66.76;95239.66;5002313;28;20230;-78
2022/09/08 08:46:25;;;;;;;4.43;0.90;;;;;;;19.28;67.50;95243.44;5008016;28;20212;-77
2022/09/08 08:49:02;;;;;;;2.05;0.90;;;;;;;19.71;65.39;95248.16;4986522;28;20200;-78
2022/09/08 08:51:46;;;;;;;3.75;1.08;;;;;;;19.77;64.01;95249.91;4976444;28;20191;-78
2022/09/08 08:54:17;;;;;;;4.05;1.00;;;;;;;19.47;63.71;95258.34;4982334;28;20273;-78
2022/09/08 08:57:08;;;;;;;0.82;0.70;;;;;;;19.49;63.86;95251.03;5005796;28;20198;-78
2022/09/08 09:00:01;;;;;;;2.35;1.00;;;;;;;19.57;63.89;95262.38;5006638;28;20191;-79
2022/09/08 09:02:51;;;;;;;0.75;0.75;;;;;;;19.08;63.68;95267.22;4986437;28;20191;-78
2022/09/08 09:05:46;;;;;;;1.25;0.93;;;;;;;19.05;64.66;95274.69;4974331;28;20703;-78
2022/09/08 09:08:48;;;;;;;1.50;1.10;;;;;;;19.49;64.15;95271.31;4966007;28;20219;-77
2022/09/08 09:11:29;;;;;;;1.85;0.80;;;;;;;19.89;61.78;95277.22;4983213;28;20278;-78
2022/09/08 09:14:01;;;;;;;1.92;0.80;;;;;;;19.67;61.76;95281.19;4967570;28;20200;-77
2022/09/08 09:16:36;;;;;;;3.15;0.70;;;;;;;19.34;63.03;95271.56;4988037;28;20203;-77
2022/09/08 09:19:37;;;;;;;1.00;0.80;;;;;;;19.78;62.07;95269.97;5005425;28;20250;-78
2022/09/08 09:22:20;;;;;;;5.10;0.85;;;;;;;19.92;61.29;95271.50;4982482;28;20195;-77
2022/09/08 09:25:14;;;;;;;4.22;0.70;;;;;;;19.65;62.61;95277.94;4977570;28;20224;-78
2022/09/08 09:27:45;;;;;;;2.20;0.82;;;;;;;19.73;61.48;95269.81;4985749;28;20269;-79
2022/09/08 09:30:43;;;;;;;0.82;0.80;;;;;;;20.03;60.99;95268.19;4988976;28;20222;-78
2022/09/08 09:33:31;;;;;;;0.82;0.68;;;;;;;19.86;60.60;95259.19;4962468;28;20200;-77
2022/09/08 09:36:05;;;;;;;0.68;0.60;;;;;;;19.70;61.33;95262.31;4967058;28;20183;-78
2022/09/08 09:38:42;;;;;;;2.33;0.60;;;;;;;19.61;62.63;95263.56;5001612;28;20196;-79
2022/09/08 09:41:19;;;;;;;2.65;0.70;;;;;;;18.85;61.84;95257.13;4985065;28;20179;-77
2022/09/08 09:44:10;;;;;;;3.38;0.85;;;;;;;19.42;61.73;95245.00;4986743;28;20227;-78
2022/09/08 09:46:48;;;;;;;1.88;0.50;;;;;;;19.81;60.15;95256.38;4991274;28;20207;-78
2022/09/08 09:49:52;;;;;;;1.27;0.80;;;;;;;20.21;60.25;95253.47;4976016;28;20208;-78
2022/09/08 09:52:31;;;;;;;2.65;0.75;;;;;;;20.54;57.95;95254.06;4992054;28;20276;-78
2022/09/08 09:55:22;;;;;;;1.92;0.73;;;;;;;20.32;58.71;95258.06;4977305;28;20249;-79
2022/09/08 09:58:04;;;;;;;2.13;1.00;;;;;;;19.93;59.59;95259.94;4979605;28;20212;-79
2022/09/08 10:00:58;;;;;;;2.42;0.88;;;;;;;20.09;57.57;95258.63;5008589;28;20587;-79
2022/09/08 10:03:51;;;;;;;3.13;0.70;;;;;;;19.24;60.89;95255.41;4979048;28;20275;-79
2022/09/08 10:07:03;;;;;;;4.60;0.80;;;;;;;19.68;58.45;95259.88;4977559;28;20207;-80
2022/09/08 10:09:40;;;;;;;4.82;0.93;;;;;;;19.59;58.93;95247.19;4975335;28;20237;-79
2022/09/08 10:12:52;;;;;;;3.85;0.77;;;;;;;19.72;57.58;95247.94;5002020;28;20182;-80
2022/09/08 10:15:37;;;;;;;1.65;0.70;;;;;;;19.81;58.59;95251.13;4981999;28;20664;-79
2022/09/08 10:18:30;;;;;;;4.43;0.90;;;;;;;19.46;61.06;95259.38;4967065;28;20218;-79
2022/09/08 10:21:26;;;;;;;1.70;0.90;;;;;;;19.38;60.31;95259.59;4981191;28;20180;-79
2022/09/08 10:24:23;;;;;;;3.25;0.80;;;;;;;19.40;61.69;95257.56;4999276;28;20184;-79
2022/09/08 10:27:23;;;;;;;1.50;0.70;;;;;;;19.10;61.72;95259.91;4992115;28;20709;-79
2022/09/08 10:30:15;;;;;;;1.17;0.77;;;;;;;18.89;61.97;95266.22;4992866;28;20224;-78
2022/09/08 10:33:18;;;;;;;1.35;0.80;;;;;;;18.78;63.16;95264.22;4965008;28;20223;-78
2022/09/08 10:35:47;;;;;;;1.45;0.80;;;;;;;18.92;61.16;95255.31;4998887;28;20195;-78
2022/09/08 10:38:19;;;;;;;0.90;0.80;;;;;;;18.91;61.78;95258.97;5003522;28;20211;-78
2022/09/08 10:41:10;;;;;;;2.25;1.10;;;;;;;19.07;61.68;95251.59;4987143;28;20180;-77
2022/09/08 10:43:38;;;;;;;1.23;0.82;;;;;;;19.04;60.89;95254.66;5014024;28;20175;-79
2022/09/08 10:46:37;;;;;;;2.90;1.00;;;;;;;18.95;59.33;95264.59;5011374;28;20215;-80
2022/09/08 10:49:20;;;;;;;3.30;1.00;;;;;;;18.93;58.71;95262.19;5010677;28;20190;-80
2022/09/08 10:52:20;;;;;;;1.80;0.75;;;;;;;19.05;58.72;95248.38;4989404;28;20179;-81
2022/09/08 10:55:15;;;;;;;4.75;0.82;;;;;;;19.66;57.65;95269.03;4989627;28;20182;-78
2022/09/08 10:57:52;;;;;;;2.55;0.80;;;;;;;19.44;56.73;95264.03;5011346;28;20231;-78
2022/09/08 11:00:21;;;;;;;4.07;0.80;;;;;;;19.40;57.14;95254.94;5008714;28;20544;-78
2022/09/08 11:03:13;;;;;;;2.67;0.70;;;;;;;20.08;55.44;95260.47;4983091;28;20206;-78
2022/09/08 11:06:08;;;;;;;2.25;0.70;;;;;;;20.28;55.08;95265.59;4982834;28;20204;-79
2022/09/08 11:09:05;;;;;;;2.25;0.70;;;;;;;20.30;53.99;95250.34;4985912;28;20223;-78
2022/09/08 11:12:08;;;;;;;3.13;0.77;;;;;;;20.03;54.79;95264.75;4991888;28;20179;-78
2022/09/08 11:14:55;;;;;;;3.10;0.70;;;;;;;19.60;55.75;95267.22;4987696;28;20191;-78
2022/09/08 11:17:24;;;;;;;3.35;0.80;;;;;;;19.84;55.45;95263.06;5009232;28;20206;-78
2022/09/08 11:20:11;;;;;;;2.15;1.10;;;;;;;19.73;55.49;95270.63;4982465;28;20175;-78
2022/09/08 11:22:42;;;;;;;2.65;0.82;;;;;;;19.75;55.53;95265.13;4991905;28;20229;-78
2022/09/08 11:25:13;;;;;;;5.88;1.10;;;;;;;19.74;54.79;95259.06;5008429;28;20204;-78
2022/09/08 11:27:44;;;;;;;3.45;0.90;;;;;;;19.66;55.43;95261.13;5012649;28;20222;-78
2022/09/08 11:30:23;;;;;;;2.35;1.20;;;;;;;19.70;55.32;95262.31;4982440;28;20270;-78
2022/09/08 11:33:12;;;;;;;2.47;0.95;;;;;;;19.86;55.57;95259.19;4977328;28;20676;-78
2022/09/08 11:36:04;;;;;;;3.88;0.95;;;;;;;19.83;55.40;95264.88;4985835;28;20691;-78
2022/09/08 11:38:58;;;;;;;2.08;0.70;;;;;;;20.04;54.44;95259.25;4981152;28;20179;-79
2022/09/08 11:41:35;;;;;;;4.70;0.90;;;;;;;20.32;53.72;95268.63;5007984;28;20193;-77
2022/09/08 11:44:09;;;;;;;1.45;0.80;;;;;;;20.05;53.78;95270.63;5010022;28;20198;-77
2022/09/08 11:46:46;;;;;;;4.28;0.85;;;;;;;19.86;54.29;95267.09;4994229;28;20707;-79
2022/09/08 11:49:49;;;;;;;2.88;0.95;;;;;;;20.21;54.06;95275.38;5015556;28;20209;-78
2022/09/08 11:52:27;;;;;;;2.03;0.73;;;;;;;20.06;53.16;95275.69;4995053;28;20683;-79
2022/09/08 11:55:18;;;;;;;4.80;1.13;;;;;;;20.14;52.48;95266.69;4987876;28;20271;-78
2022/09/08 11:58:07;;;;;;;2.65;0.90;;;;;;;20.24;52.18;95269.69;5011319;28;20725;-79
2022/09/08 12:01:06;;;;;;;2.35;0.90;;;;;;;20.30;51.26;95273.28;4995720;28;20202;-78
2022/09/08 12:03:56;;;;;;;2.50;1.35;;;;;;;20.36;51.98;95270.59;4996117;28;20183;-78
2022/09/08 12:06:42;;;;;;;2.60;0.90;;;;;;;20.53;51.75;95259.56;5004366;28;20592;-78
2022/09/08 12:09:26;;;;;;;3.03;0.98;;;;;;;20.61;51.38;95262.72;4995426;28;20258;-78